Time;durP1;ratioP1;P1;durP2;ratioP2;P2;SDS_P1;SDS_P2;PMS_P1;PMS_P2;Temp;Humidity;BMP_temperature;BMP_pressure;BME280_temperature;BME280_humidity;BME280_pressure;Samples;Min_cycle;Max_cycle;Signal;HPM_P1;HPM_P2
2022/10/19 00:02:03;;;;;;;23.88;9.35;;;12.60;99.90;;;;;;5039370;28;20025;-64
2022/10/19 00:04:29;;;;;;;18.65;9.35;;;12.60;99.90;;;;;;5044279;28;20080;-64
2022/10/19 00:06:54;;;;;;;19.95;8.90;;;12.60;99.90;;;;;;5049143;28;20412;-65
2022/10/19 00:09:21;;;;;;;28.02;9.43;;;12.50;99.90;;;;;;5048380;28;20045;-69
2022/10/19 00:11:49;;;;;;;21.00;9.20;;;12.50;99.90;;;;;;5047068;28;20060;-64
2022/10/19 00:14:19;;;;;;;21.50;8.65;;;12.60;99.90;;;;;;5048437;28;20687;-63
2022/10/19 00:16:46;;;;;;;17.88;7.85;;;12.50;99.90;;;;;;5049000;28;20037;-65
2022/10/19 00:19:15;;;;;;;23.25;8.82;;;12.50;99.90;;;;;;5048929;28;20120;-64
2022/10/19 00:21:41;;;;;;;17.27;8.07;;;12.50;99.90;;;;;;5048436;28;20021;-64
2022/10/19 00:24:07;;;;;;;19.40;8.43;;;12.50;99.90;;;;;;5047270;28;20036;-64
2022/10/19 00:26:33;;;;;;;13.60;7.82;;;12.50;99.90;;;;;;5046033;28;20029;-63
2022/10/19 00:28:59;;;;;;;40.97;8.40;;;12.50;99.90;;;;;;5048934;28;20044;-63
2022/10/19 00:31:25;;;;;;;23.75;7.80;;;12.50;99.90;;;;;;5046581;28;20036;-68
2022/10/19 00:33:51;;;;;;;13.07;7.65;;;12.50;99.90;;;;;;5047703;28;20457;-65
2022/10/19 00:36:32;;;;;;;14.07;7.85;;;12.50;99.90;;;;;;5048389;28;20037;-66
2022/10/19 00:38:58;;;;;;;19.23;8.40;;;12.40;99.90;;;;;;5049913;28;20032;-63
2022/10/19 00:41:26;;;;;;;12.80;7.30;;;12.40;99.90;;;;;;5046529;28;20755;-70
2022/10/19 00:44:10;;;;;;;14.02;7.30;;;12.30;99.90;;;;;;5045608;28;20049;-65
2022/10/19 00:46:38;;;;;;;20.60;6.70;;;12.30;99.90;;;;;;5042327;28;20481;-66
2022/10/19 00:49:17;;;;;;;75.93;9.27;;;12.30;99.90;;;;;;5048335;28;20037;-66
2022/10/19 00:51:47;;;;;;;19.42;7.25;;;12.30;99.90;;;;;;5046273;28;20029;-65
2022/10/19 00:54:14;;;;;;;15.50;7.68;;;12.30;99.90;;;;;;5048331;28;20060;-63
2022/10/19 00:56:41;;;;;;;36.40;7.45;;;12.30;99.90;;;;;;5045101;28;20033;-67
2022/10/19 00:59:08;;;;;;;14.52;8.50;;;12.30;99.90;;;;;;5047735;28;20493;-66
2022/10/19 01:01:34;;;;;;;20.50;7.82;;;12.30;99.90;;;;;;5046037;28;20036;-63
2022/10/19 01:04:01;;;;;;;64.55;7.45;;;12.30;99.90;;;;;;5048013;28;20037;-67
2022/10/19 01:06:27;;;;;;;20.67;8.30;;;12.30;99.90;;;;;;5046871;28;20363;-68
2022/10/19 01:08:53;;;;;;;40.53;7.30;;;12.30;99.90;;;;;;5040856;28;20031;-65
2022/10/19 01:11:36;;;;;;;94.28;9.35;;;12.30;99.90;;;;;;5048936;28;20039;-62
2022/10/19 01:14:17;;;;;;;18.80;8.35;;;12.40;99.90;;;;;;5047548;28;20697;-64
2022/10/19 01:17:02;;;;;;;20.10;8.27;;;12.40;99.90;;;;;;5048048;28;20044;-66
2022/10/19 01:19:57;;;;;;;15.70;8.50;;;12.40;99.90;;;;;;5045754;28;20076;-70
2022/10/19 01:22:31;;;;;;;18.08;9.60;;;12.40;99.90;;;;;;5048119;28;20040;-63
2022/10/19 01:25:21;;;;;;;15.75;9.00;;;12.40;99.90;;;;;;5045405;28;20078;-65
2022/10/19 01:28:13;;;;;;;20.00;9.43;;;12.40;99.90;;;;;;5045633;28;20028;-64
2022/10/19 01:31:14;;;;;;;20.90;9.00;;;12.40;99.90;;;;;;5035967;28;20119;-61
2022/10/19 01:33:58;;;;;;;16.77;8.93;;;12.40;99.90;;;;;;5041608;28;20053;-68
2022/10/19 01:36:37;;;;;;;19.90;8.93;;;12.40;99.90;;;;;;5047617;28;20033;-68
2022/10/19 01:39:33;;;;;;;19.83;10.10;;;12.40;99.90;;;;;;5045928;28;20057;-64
2022/10/19 01:42:08;;;;;;;18.52;9.88;;;12.40;99.90;;;;;;5047848;28;20105;-65
2022/10/19 01:44:44;;;;;;;19.20;9.70;;;12.60;99.90;;;;;;5045150;28;20053;-63
2022/10/19 01:47:24;;;;;;;21.52;10.35;;;12.60;99.90;;;;;;5047159;28;20543;-65
2022/10/19 01:50:08;;;;;;;21.17;9.85;;;12.60;99.90;;;;;;5045927;28;20033;-64
2022/10/19 01:52:36;;;;;;;18.77;9.25;;;12.70;99.90;;;;;;5044345;28;20482;-64
2022/10/19 01:55:03;;;;;;;17.75;9.35;;;12.70;99.90;;;;;;5041169;28;20036;-65
2022/10/19 01:57:44;;;;;;;17.20;9.32;;;12.70;99.90;;;;;;5043902;28;20028;-71
2022/10/19 02:00:13;;;;;;;18.35;9.98;;;12.80;99.90;;;;;;5046047;28;20033;-65
2022/10/19 02:02:43;;;;;;;19.08;9.15;;;12.80;99.90;;;;;;5044946;28;20199;-61
2022/10/19 02:05:11;;;;;;;19.05;10.48;;;12.70;99.90;;;;;;5047409;28;20036;-64
2022/10/19 02:07:40;;;;;;;22.17;9.23;;;12.70;99.90;;;;;;5046683;28;20055;-63
2022/10/19 02:10:06;;;;;;;21.92;10.13;;;12.70;99.90;;;;;;5045697;28;20040;-64
2022/10/19 02:12:32;;;;;;;15.82;8.95;;;12.70;99.90;;;;;;5046365;28;20149;-65
2022/10/19 02:15:04;;;;;;;21.10;9.77;;;12.70;99.90;;;;;;5045652;28;20021;-63
2022/10/19 02:17:34;;;;;;;17.17;9.80;;;12.70;99.90;;;;;;5045980;28;20029;-69
2022/10/19 02:20:00;;;;;;;20.17;9.68;;;12.70;99.90;;;;;;5045388;28;20098;-64
2022/10/19 02:22:26;;;;;;;22.00;10.18;;;12.70;99.90;;;;;;5042098;28;20036;-63
2022/10/19 02:24:52;;;;;;;18.13;9.77;;;12.70;99.90;;;;;;5046912;28;20040;-65
2022/10/19 02:27:18;;;;;;;20.42;9.55;;;12.90;99.90;;;;;;5046340;28;20389;-64
2022/10/19 02:29:44;;;;;;;18.95;9.43;;;12.80;99.90;;;;;;5044624;28;20052;-63
2022/10/19 02:32:10;;;;;;;17.45;8.65;;;12.80;99.90;;;;;;5046383;28;20033;-64
2022/10/19 02:34:37;;;;;;;20.95;9.43;;;12.80;99.90;;;;;;5044684;28;20227;-63
2022/10/19 02:37:04;;;;;;;16.77;9.73;;;12.80;99.90;;;;;;5045901;28;20037;-62
2022/10/19 02:39:30;;;;;;;19.75;9.30;;;12.80;99.90;;;;;;5046000;28;20044;-71
2022/10/19 02:42:19;;;;;;;18.02;9.07;;;12.80;99.90;;;;;;5047172;28;20024;-62
2022/10/19 02:44:52;;;;;;;18.83;9.35;;;12.70;99.90;;;;;;5045081;28;20580;-69
2022/10/19 02:47:24;;;;;;;22.23;10.10;;;12.70;99.90;;;;;;5047764;28;20036;-64
2022/10/19 02:49:50;;;;;;;18.70;9.45;;;12.70;99.90;;;;;;5046189;28;20120;-67
2022/10/19 02:52:16;;;;;;;17.50;9.20;;;12.60;99.90;;;;;;5045671;28;20032;-64
2022/10/19 02:54:43;;;;;;;27.15;9.93;;;12.60;99.90;;;;;;5044880;28;20040;-67
2022/10/19 02:57:23;;;;;;;21.15;9.93;;;12.60;99.90;;;;;;5045468;28;20059;-63
2022/10/19 02:59:49;;;;;;;21.70;10.83;;;12.60;99.90;;;;;;5041129;28;20029;-63
2022/10/19 03:02:16;;;;;;;23.13;10.10;;;12.60;99.90;;;;;;5045714;28;20492;-64
2022/10/19 03:04:43;;;;;;;20.85;11.02;;;12.60;99.90;;;;;;5040776;28;20386;-62
2022/10/19 03:07:10;;;;;;;25.60;11.80;;;12.60;99.90;;;;;;5043691;28;20108;-62
2022/10/19 03:09:36;;;;;;;22.75;10.80;;;12.70;99.90;;;;;;5045264;28;20037;-65
2022/10/19 03:12:02;;;;;;;23.98;10.93;;;12.80;99.90;;;;;;5045334;28;20631;-64
2022/10/19 03:14:28;;;;;;;23.10;12.27;;;12.80;99.90;;;;;;5045357;28;20103;-62
2022/10/19 03:16:54;;;;;;;24.38;11.85;;;12.80;99.90;;;;;;5046352;28;20939;-63
2022/10/19 03:19:19;;;;;;;23.23;11.60;;;12.90;99.90;;;;;;5048215;28;20040;-65
2022/10/19 03:21:45;;;;;;;25.60;11.57;;;12.90;99.90;;;;;;5047275;28;20025;-62
2022/10/19 03:24:11;;;;;;;23.48;11.98;;;13.00;99.90;;;;;;5048345;28;20489;-64
2022/10/19 03:26:37;;;;;;;22.48;11.52;;;13.00;99.90;;;;;;5047230;28;20031;-63
2022/10/19 03:29:02;;;;;;;21.15;11.32;;;13.00;99.90;;;;;;5048197;28;20033;-64
2022/10/19 03:31:28;;;;;;;21.58;10.98;;;13.00;99.90;;;;;;5051603;28;20264;-63
2022/10/19 03:33:54;;;;;;;20.42;10.25;;;13.00;99.90;;;;;;5042796;28;20603;-64
2022/10/19 03:36:25;;;;;;;24.38;10.55;;;13.00;99.90;;;;;;5046460;28;20026;-64
2022/10/19 03:38:52;;;;;;;22.42;10.18;;;13.00;99.90;;;;;;5047301;28;20112;-62
2022/10/19 03:41:20;;;;;;;20.65;10.73;;;13.00;99.90;;;;;;5047453;28;20032;-62
2022/10/19 03:43:46;;;;;;;21.20;11.38;;;13.10;99.90;;;;;;5047134;28;20088;-63
2022/10/19 03:46:11;;;;;;;23.30;12.18;;;13.10;99.90;;;;;;5048158;28;20580;-63
2022/10/19 03:48:37;;;;;;;23.58;10.63;;;13.10;99.90;;;;;;5052902;28;20032;-68
2022/10/19 03:51:06;;;;;;;26.27;11.73;;;13.20;99.90;;;;;;5047543;28;20318;-65
2022/10/19 03:53:32;;;;;;;21.45;11.45;;;13.20;99.90;;;;;;5047220;28;20024;-69
2022/10/19 03:56:24;;;;;;;26.15;12.27;;;13.20;99.90;;;;;;5038822;28;20028;-62
2022/10/19 03:58:52;;;;;;;24.42;12.18;;;13.20;99.90;;;;;;5043756;28;20405;-65
2022/10/19 04:01:21;;;;;;;26.27;12.98;;;13.20;99.90;;;;;;5047107;28;20035;-65
2022/10/19 04:03:47;;;;;;;22.40;11.82;;;13.20;99.90;;;;;;5043393;28;20033;-63
2022/10/19 04:06:15;;;;;;;23.95;11.95;;;13.20;99.90;;;;;;5048211;28;20433;-62
2022/10/19 04:08:41;;;;;;;27.05;13.20;;;13.10;99.90;;;;;;5048643;28;20541;-63
2022/10/19 04:11:17;;;;;;;26.25;12.45;;;13.20;99.90;;;;;;5048238;28;20128;-64
2022/10/19 04:13:42;;;;;;;24.23;12.55;;;13.10;99.90;;;;;;5045506;28;20120;-64
2022/10/19 04:16:12;;;;;;;27.05;13.05;;;13.20;99.90;;;;;;5049915;28;20388;-62
2022/10/19 04:18:37;;;;;;;29.95;12.85;;;13.20;99.90;;;;;;5048746;28;20039;-67
2022/10/19 04:21:04;;;;;;;27.63;13.02;;;13.10;99.90;;;;;;5049516;28;20037;-64
2022/10/19 04:23:33;;;;;;;25.75;13.13;;;13.10;99.90;;;;;;5054116;28;20021;-66
2022/10/19 04:26:06;;;;;;;25.83;12.32;;;13.10;99.90;;;;;;5048920;28;20025;-62
2022/10/19 04:28:33;;;;;;;32.88;13.63;;;13.20;99.90;;;;;;5049116;28;20032;-63
2022/10/19 04:31:03;;;;;;;28.58;13.20;;;13.20;99.90;;;;;;5049976;28;20071;-62
2022/10/19 04:33:28;;;;;;;29.27;13.68;;;13.20;99.90;;;;;;5049953;28;20129;-62
2022/10/19 04:36:01;;;;;;;27.98;13.27;;;13.20;99.90;;;;;;5048518;28;20814;-62
2022/10/19 04:38:31;;;;;;;25.42;13.05;;;13.20;99.90;;;;;;5050186;28;20033;-63
2022/10/19 04:41:02;;;;;;;29.52;13.10;;;13.20;99.90;;;;;;5068358;28;20036;-63
2022/10/19 04:43:28;;;;;;;25.75;12.35;;;13.20;99.90;;;;;;5051010;28;20057;-62
2022/10/19 04:45:54;;;;;;;28.67;14.00;;;13.20;99.90;;;;;;5049305;28;20069;-64
2022/10/19 04:48:20;;;;;;;25.00;12.52;;;13.20;99.90;;;;;;5048794;28;20106;-63
2022/10/19 04:50:45;;;;;;;29.48;12.98;;;13.20;99.90;;;;;;5047951;28;20036;-64
2022/10/19 04:53:11;;;;;;;31.17;14.43;;;13.20;99.90;;;;;;5047466;28;20041;-65
2022/10/19 04:55:41;;;;;;;30.95;13.75;;;13.20;99.90;;;;;;5050122;28;20136;-70
2022/10/19 04:58:07;;;;;;;24.90;12.43;;;13.20;99.90;;;;;;5044158;28;20043;-62
2022/10/19 05:00:32;;;;;;;26.77;12.57;;;13.20;99.90;;;;;;5048872;28;20029;-65
2022/10/19 05:02:58;;;;;;;26.33;12.90;;;13.30;99.90;;;;;;5047475;28;20558;-65
2022/10/19 05:05:25;;;;;;;28.73;13.20;;;13.30;99.90;;;;;;5050251;28;20040;-64
2022/10/19 05:07:51;;;;;;;32.13;12.73;;;13.30;99.90;;;;;;5047648;28;20025;-65
2022/10/19 05:10:17;;;;;;;29.23;13.25;;;13.30;99.90;;;;;;5049962;28;20114;-64
2022/10/19 05:12:42;;;;;;;31.13;13.45;;;13.30;99.90;;;;;;5047849;28;20053;-64
2022/10/19 05:15:08;;;;;;;28.80;13.23;;;13.30;99.90;;;;;;5049945;28;20082;-62
2022/10/19 05:17:34;;;;;;;28.42;13.25;;;13.30;99.90;;;;;;5050205;28;20104;-63
2022/10/19 05:20:00;;;;;;;31.40;12.90;;;13.20;99.90;;;;;;5047962;28;20029;-64
2022/10/19 05:22:26;;;;;;;23.67;12.52;;;13.20;99.90;;;;;;5049249;28;20031;-64
2022/10/19 05:24:52;;;;;;;27.08;12.85;;;13.20;99.90;;;;;;5045958;28;20033;-64
2022/10/19 05:27:17;;;;;;;24.25;12.93;;;13.20;99.90;;;;;;5048553;28;20393;-63
2022/10/19 05:29:43;;;;;;;32.88;13.25;;;13.20;99.90;;;;;;5047962;28;20116;-64
2022/10/19 05:32:09;;;;;;;29.02;12.73;;;13.20;99.90;;;;;;5069700;28;20104;-65
2022/10/19 05:34:34;;;;;;;24.90;12.68;;;13.20;99.90;;;;;;5052040;28;20040;-66
2022/10/19 05:37:00;;;;;;;28.98;13.80;;;13.20;99.90;;;;;;5046468;28;20029;-64
2022/10/19 05:39:25;;;;;;;31.02;12.43;;;13.20;99.90;;;;;;5047590;28;20060;-64
2022/10/19 05:41:51;;;;;;;28.85;13.20;;;13.20;99.90;;;;;;5048565;28;20458;-64
2022/10/19 05:44:19;;;;;;;27.25;12.90;;;13.20;99.90;;;;;;5046955;28;20057;-66
2022/10/19 05:46:46;;;;;;;27.98;13.45;;;13.20;99.90;;;;;;5050654;28;20029;-65
2022/10/19 05:49:13;;;;;;;28.08;14.05;;;13.30;99.90;;;;;;5051902;28;20033;-63
2022/10/19 05:51:39;;;;;;;32.17;13.65;;;13.20;99.90;;;;;;5047261;28;20381;-64
2022/10/19 05:54:05;;;;;;;29.23;13.60;;;13.20;99.90;;;;;;5046685;28;20033;-63
2022/10/19 05:56:31;;;;;;;28.08;13.75;;;13.20;99.90;;;;;;5047960;28;20037;-64
2022/10/19 05:58:59;;;;;;;28.10;13.55;;;13.20;99.90;;;;;;5045803;28;20041;-66
2022/10/19 06:01:26;;;;;;;28.35;13.80;;;13.20;99.90;;;;;;5049210;28;20082;-66
2022/10/19 06:03:53;;;;;;;30.17;13.15;;;13.20;99.90;;;;;;5048790;28;20446;-63
2022/10/19 06:06:19;;;;;;;27.75;12.90;;;13.20;99.90;;;;;;5048356;28;20078;-64
2022/10/19 06:08:46;;;;;;;28.50;13.48;;;13.20;99.90;;;;;;5047720;28;20033;-69
2022/10/19 06:11:21;;;;;;;29.25;13.88;;;13.20;99.90;;;;;;5047778;28;20471;-66
2022/10/19 06:13:49;;;;;;;29.00;13.10;;;13.20;99.90;;;;;;5046331;28;20036;-62
2022/10/19 06:16:16;;;;;;;29.70;13.43;;;13.20;99.90;;;;;;5046801;28;20380;-66
2022/10/19 06:18:43;;;;;;;27.95;13.85;;;13.20;99.90;;;;;;5048893;28;20028;-70
2022/10/19 06:21:17;;;;;;;32.03;14.13;;;13.20;99.90;;;;;;5046773;28;20040;-64
2022/10/19 06:23:43;;;;;;;28.90;13.85;;;13.20;99.90;;;;;;5037426;28;20465;-68
2022/10/19 06:26:13;;;;;;;33.97;14.65;;;13.20;99.90;;;;;;5048016;28;20029;-63
2022/10/19 06:28:41;;;;;;;27.58;14.27;;;13.20;99.90;;;;;;5048349;28;20083;-62
2022/10/19 06:31:07;;;;;;;29.80;14.38;;;13.30;99.90;;;;;;5045901;28;20049;-65
2022/10/19 06:33:33;;;;;;;33.47;15.05;;;13.30;99.90;;;;;;5048703;28;20568;-65
2022/10/19 06:36:11;;;;;;;29.20;15.70;;;13.40;99.90;;;;;;5045828;28;20035;-63
2022/10/19 06:38:37;;;;;;;31.15;15.15;;;13.40;99.90;;;;;;5057783;28;20032;-64
2022/10/19 06:41:03;;;;;;;36.60;15.73;;;13.40;99.90;;;;;;5050653;28;20546;-65
2022/10/19 06:43:29;;;;;;;29.63;14.52;;;13.50;99.90;;;;;;5048490;28;20063;-62
2022/10/19 06:45:55;;;;;;;34.92;16.40;;;13.50;99.90;;;;;;5046669;28;20108;-64
2022/10/19 06:48:21;;;;;;;35.97;15.30;;;13.50;99.90;;;;;;5045181;28;20028;-62
2022/10/19 06:50:55;;;;;;;33.20;13.98;;;13.60;99.90;;;;;;5043658;28;20073;-67
2022/10/19 06:53:21;;;;;;;27.77;13.40;;;13.50;99.90;;;;;;5047557;28;20535;-62
2022/10/19 06:55:46;;;;;;;29.88;13.38;;;13.40;99.90;;;;;;5042568;28;20037;-69
2022/10/19 06:58:12;;;;;;;26.40;12.43;;;13.50;99.90;;;;;;5041289;28;20064;-66
2022/10/19 07:00:37;;;;;;;29.13;12.45;;;13.60;99.90;;;;;;5043436;28;20037;-64
2022/10/19 07:03:03;;;;;;;25.73;12.55;;;13.60;99.90;;;;;;5044506;28;20165;-64
2022/10/19 07:05:29;;;;;;;23.17;11.25;;;13.60;99.90;;;;;;5042497;28;20026;-65
2022/10/19 07:07:56;;;;;;;21.98;10.80;;;13.60;99.90;;;;;;5038350;28;20048;-66
2022/10/19 07:10:22;;;;;;;23.60;11.60;;;13.60;99.90;;;;;;5043539;28;20077;-65
2022/10/19 07:12:47;;;;;;;21.70;10.80;;;13.70;99.90;;;;;;5042531;28;20048;-66
2022/10/19 07:15:13;;;;;;;29.17;11.70;;;13.70;99.90;;;;;;5040982;28;20037;-61
2022/10/19 07:17:39;;;;;;;24.52;11.05;;;13.70;99.90;;;;;;5049073;28;20037;-63
2022/10/19 07:20:05;;;;;;;20.80;9.93;;;13.80;99.90;;;;;;5048792;28;20119;-65
2022/10/19 07:22:30;;;;;;;23.13;10.50;;;13.90;99.90;;;;;;5049538;28;20033;-63
2022/10/19 07:24:57;;;;;;;23.63;11.13;;;13.90;99.90;;;;;;5051624;28;20386;-65
2022/10/19 07:27:23;;;;;;;24.33;10.73;;;13.90;99.90;;;;;;5049793;28;20588;-63
2022/10/19 07:29:48;;;;;;;23.73;10.50;;;13.90;99.90;;;;;;5048003;28;20037;-69
2022/10/19 07:32:14;;;;;;;21.17;10.88;;;13.90;99.90;;;;;;5051090;28;20033;-65
2022/10/19 07:34:40;;;;;;;23.05;9.85;;;14.00;99.90;;;;;;5049943;28;20078;-66
2022/10/19 07:37:05;;;;;;;25.45;12.35;;;14.00;99.90;;;;;;5049711;28;20603;-64
2022/10/19 07:39:31;;;;;;;25.90;12.23;;;14.10;99.90;;;;;;5051283;28;20389;-65
2022/10/19 07:41:57;;;;;;;21.65;10.07;;;14.10;99.90;;;;;;5048389;28;20104;-62
2022/10/19 07:44:22;;;;;;;19.95;10.15;;;14.20;99.90;;;;;;5051672;28;20067;-65
2022/10/19 07:46:49;;;;;;;20.45;9.68;;;14.20;99.90;;;;;;5048736;28;20033;-68
2022/10/19 07:49:17;;;;;;;22.92;10.38;;;14.20;99.90;;;;;;5048520;28;20048;-66
2022/10/19 07:51:44;;;;;;;18.70;9.60;;;14.20;99.90;;;;;;5050955;28;20036;-63
2022/10/19 07:54:10;;;;;;;19.55;9.77;;;14.30;99.90;;;;;;5048239;28;20031;-66
2022/10/19 07:56:36;;;;;;;21.85;9.73;;;14.40;99.90;;;;;;5051632;28;20025;-63
2022/10/19 07:59:03;;;;;;;20.45;9.73;;;14.40;99.90;;;;;;5048124;28;20075;-63
2022/10/19 08:01:32;;;;;;;18.23;9.30;;;14.50;99.90;;;;;;5049931;28;20455;-64
2022/10/19 08:03:59;;;;;;;19.67;9.57;;;14.60;99.90;;;;;;5048682;28;20033;-66
2022/10/19 08:06:26;;;;;;;20.67;9.35;;;14.50;99.90;;;;;;5050358;28;20029;-64
2022/10/19 08:08:52;;;;;;;18.67;9.43;;;14.50;99.90;;;;;;5049655;28;20076;-71
2022/10/19 08:11:20;;;;;;;18.63;9.40;;;14.60;99.90;;;;;;5048801;28;20049;-63
2022/10/19 08:13:46;;;;;;;18.38;9.57;;;14.60;99.90;;;;;;5051699;28;20037;-64
2022/10/19 08:16:32;;;;;;;23.20;9.85;;;14.60;99.90;;;;;;5050409;28;20799;-62
2022/10/19 08:19:01;;;;;;;25.05;10.63;;;14.60;99.90;;;;;;5050118;28;20485;-63
2022/10/19 08:21:28;;;;;;;21.27;10.88;;;14.60;99.90;;;;;;5048405;28;20053;-63
2022/10/19 08:23:53;;;;;;;23.10;11.13;;;14.70;99.90;;;;;;5050416;28;20021;-63
2022/10/19 08:26:20;;;;;;;21.15;9.43;;;14.80;99.90;;;;;;5047706;28;20919;-64
2022/10/19 08:28:46;;;;;;;22.88;10.38;;;14.90;99.90;;;;;;5050107;28;20128;-63
2022/10/19 08:31:18;;;;;;;164.70;93.05;;;14.90;99.90;;;;;;5047962;28;20655;-63
2022/10/19 08:33:44;;;;;;;58.92;36.95;;;15.00;99.90;;;;;;5049800;28;20040;-63
2022/10/19 08:36:12;;;;;;;31.80;17.98;;;15.00;99.90;;;;;;5046083;28;20784;-68
2022/10/19 08:38:38;;;;;;;20.38;11.13;;;15.20;99.90;;;;;;5049742;28;20036;-67
2022/10/19 08:41:22;;;;;;;19.33;9.65;;;15.30;99.90;;;;;;5048839;28;20029;-63
2022/10/19 08:44:27;;;;;;;18.83;8.30;;;15.40;99.90;;;;;;5030725;28;20068;-63
2022/10/19 08:47:11;;;;;;;16.90;8.68;;;15.50;99.90;;;;;;5035801;28;20037;-71
2022/10/19 08:49:36;;;;;;;19.13;9.85;;;15.40;99.90;;;;;;5049429;28;20394;-63
2022/10/19 08:52:20;;;;;;;18.80;8.23;;;15.50;99.90;;;;;;5047315;28;20021;-64
2022/10/19 08:54:50;;;;;;;15.73;7.95;;;15.50;99.90;;;;;;5048760;28;20021;-64
2022/10/19 08:57:41;;;;;;;17.95;8.55;;;15.50;99.90;;;;;;5048055;28;20024;-63
2022/10/19 09:00:06;;;;;;;;;;;15.60;99.90;;;;;;5049414;28;20041;-63
2022/10/19 09:02:42;;;;;;;16.60;8.27;;;15.70;99.90;;;;;;5047854;28;19913;-64
2022/10/19 09:05:36;;;;;;;15.93;7.75;;;15.70;99.90;;;;;;5049886;28;20029;-64
2022/10/19 09:08:02;;;;;;;15.88;8.45;;;15.70;99.90;;;;;;5042133;28;20033;-62
2022/10/19 09:10:34;;;;;;;106.45;62.55;;;15.70;99.90;;;;;;5050291;28;20075;-63
2022/10/19 09:13:32;;;;;;;50.67;32.47;;;15.80;99.90;;;;;;5048566;28;20480;-63
2022/10/19 09:15:59;;;;;;;39.80;25.65;;;15.80;99.90;;;;;;5047188;28;20065;-65
2022/10/19 09:18:31;;;;;;;17.10;8.88;;;15.90;99.90;;;;;;5049554;28;20025;-63
2022/10/19 09:21:06;;;;;;;18.67;8.82;;;15.90;99.90;;;;;;5048553;28;20033;-62
2022/10/19 09:23:38;;;;;;;19.65;9.38;;;15.80;99.90;;;;;;5049473;28;20033;-65
2022/10/19 09:26:17;;;;;;;16.45;8.63;;;15.70;99.90;;;;;;5049268;28;20069;-64
2022/10/19 09:29:12;;;;;;;16.15;7.85;;;15.80;99.90;;;;;;5047628;28;20508;-64
2022/10/19 09:31:41;;;;;;;14.55;6.97;;;15.80;99.90;;;;;;5041960;28;20485;-63
2022/10/19 09:34:31;;;;;;;19.67;8.18;;;15.90;99.90;;;;;;5037593;28;20116;-63
2022/10/19 09:36:58;;;;;;;17.38;7.65;;;16.10;99.90;;;;;;5048018;28;20090;-68
2022/10/19 09:39:26;;;;;;;17.48;6.63;;;16.20;99.90;;;;;;5045977;28;20045;-62
2022/10/19 09:42:19;;;;;;;12.68;6.88;;;16.30;99.90;;;;;;5049580;28;20021;-64
2022/10/19 09:44:45;;;;;;;12.80;6.95;;;16.10;99.90;;;;;;5049335;28;20482;-65
2022/10/19 09:47:34;;;;;;;12.77;7.07;;;15.90;99.90;;;;;;5047155;28;20044;-63
2022/10/19 09:50:22;;;;;;;15.30;6.95;;;15.90;99.90;;;;;;5046968;28;20124;-67
2022/10/19 09:52:48;;;;;;;12.27;6.82;;;15.90;99.90;;;;;;5044164;28;20029;-65
2022/10/19 09:55:32;;;;;;;13.15;6.88;;;15.80;99.90;;;;;;5046459;28;20045;-63
2022/10/19 09:58:23;;;;;;;12.98;6.03;;;16.00;99.90;;;;;;5047401;28;20033;-68
2022/10/19 10:00:53;;;;;;;11.73;5.95;;;16.00;99.90;;;;;;5047085;28;20428;-63
2022/10/19 10:03:29;;;;;;;10.77;5.78;;;16.30;99.90;;;;;;5044030;28;20036;-62
2022/10/19 10:06:02;;;;;;;10.57;5.55;;;16.60;99.90;;;;;;5048118;28;20068;-67
2022/10/19 10:08:30;;;;;;;9.93;5.68;;;16.90;99.90;;;;;;5043762;28;20033;-63
2022/10/19 10:11:10;;;;;;;10.50;5.30;;;16.90;99.90;;;;;;5046176;28;20052;-68
2022/10/19 10:13:49;;;;;;;10.85;5.05;;;17.20;99.90;;;;;;5048162;28;20037;-67
2022/10/19 10:16:19;;;;;;;11.32;5.50;;;17.30;99.90;;;;;;5028589;28;20029;-64
2022/10/19 10:18:50;;;;;;;9.30;5.30;;;17.40;99.90;;;;;;5041051;28;20039;-65
2022/10/19 10:21:35;;;;;;;12.95;5.90;;;17.50;99.90;;;;;;5042964;28;20360;-62
2022/10/19 10:24:11;;;;;;;9.13;5.07;;;17.60;99.90;;;;;;5059340;28;20041;-64
2022/10/19 10:26:40;;;;;;;14.15;6.65;;;17.80;99.90;;;;;;5046459;28;20029;-64
2022/10/19 10:29:26;;;;;;;14.13;5.97;;;18.00;99.90;;;;;;5047250;28;20028;-63
2022/10/19 10:31:57;;;;;;;10.75;5.60;;;18.20;99.90;;;;;;5045060;28;20104;-63
2022/10/19 10:34:33;;;;;;;11.32;5.15;;;18.40;99.90;;;;;;5044215;28;20052;-64
2022/10/19 10:37:00;;;;;;;8.32;5.22;;;18.20;99.90;;;;;;5046087;28;20055;-68
2022/10/19 10:39:28;;;;;;;11.98;5.97;;;18.20;99.90;;;;;;5048387;28;20025;-62
2022/10/19 10:41:56;;;;;;;10.68;6.38;;;18.40;99.90;;;;;;5045406;28;20071;-64
2022/10/19 10:44:28;;;;;;;11.57;5.93;;;18.10;99.90;;;;;;5047131;28;20049;-64
2022/10/19 10:47:04;;;;;;;10.20;5.88;;;17.90;99.90;;;;;;5046581;28;20036;-63
2022/10/19 10:49:35;;;;;;;9.82;5.30;;;18.10;99.90;;;;;;5042192;28;20124;-64
2022/10/19 10:52:12;;;;;;;10.98;5.75;;;18.60;99.90;;;;;;5044021;28;20126;-67
2022/10/19 10:54:38;;;;;;;10.75;5.50;;;19.00;99.90;;;;;;5046433;28;20104;-63
2022/10/19 10:57:19;;;;;;;10.23;5.43;;;19.30;99.90;;;;;;5047566;28;20136;-62
2022/10/19 10:59:56;;;;;;;8.38;4.18;;;19.40;99.90;;;;;;5048243;28;20680;-64
2022/10/19 11:02:54;;;;;;;9.90;5.05;;;19.60;99.90;;;;;;5046832;28;20172;-62
2022/10/19 11:05:22;;;;;;;13.20;4.65;;;19.60;99.90;;;;;;5025666;28;20037;-65
2022/10/19 11:08:09;;;;;;;10.27;4.63;;;19.80;99.90;;;;;;5046584;28;20473;-62
2022/10/19 11:11:13;;;;;;;11.88;4.50;;;20.00;99.90;;;;;;5046114;28;20120;-65
2022/10/19 11:14:01;;;;;;;11.77;4.88;;;19.60;99.90;;;;;;5026867;28;20073;-65
2022/10/19 11:16:57;;;;;;;10.73;5.82;;;19.40;99.90;;;;;;5043549;28;20029;-64
2022/10/19 11:19:26;;;;;;;8.40;5.32;;;19.20;99.90;;;;;;5034098;28;20053;-64
2022/10/19 11:22:15;;;;;;;7.68;4.85;;;19.10;99.90;;;;;;5047875;28;20021;-64
2022/10/19 11:25:23;;;;;;;14.55;5.35;;;19.50;99.90;;;;;;5045046;28;20061;-67
2022/10/19 11:28:10;;;;;;;7.50;4.85;;;19.50;99.90;;;;;;5047297;28;20039;-63
2022/10/19 11:30:46;;;;;;;11.77;4.97;;;19.40;99.90;;;;;;5047193;28;20112;-66
2022/10/19 11:33:33;;;;;;;10.68;4.70;;;19.20;99.90;;;;;;5047447;28;20044;-64
2022/10/19 11:36:09;;;;;;;8.43;4.57;;;18.90;99.90;;;;;;5046849;28;20044;-66
2022/10/19 11:38:50;;;;;;;7.53;4.20;;;18.70;99.90;;;;;;5038849;28;20037;-64
2022/10/19 11:41:37;;;;;;;10.35;4.00;;;18.70;99.90;;;;;;5043314;28;20029;-63
2022/10/19 11:44:44;;;;;;;7.82;3.88;;;18.50;99.90;;;;;;5046452;28;20114;-69
2022/10/19 11:47:28;;;;;;;7.72;4.25;;;18.30;99.90;;;;;;5046264;28;20040;-65
2022/10/19 11:49:56;;;;;;;7.75;4.50;;;18.30;99.90;;;;;;5046060;28;20029;-64
2022/10/19 11:52:45;;;;;;;6.10;4.13;;;18.20;99.90;;;;;;5044762;28;20020;-66
2022/10/19 11:55:29;;;;;;;9.63;4.20;;;18.40;99.90;;;;;;5039751;28;20123;-64
2022/10/19 11:58:04;;;;;;;9.95;4.25;;;18.30;99.90;;;;;;5046980;28;20206;-65
2022/10/19 12:00:37;;;;;;;10.55;4.45;;;18.30;99.90;;;;;;5046360;28;20043;-68
2022/10/19 12:03:44;;;;;;;9.35;4.90;;;18.20;99.90;;;;;;5049517;28;20417;-69
2022/10/19 12:06:27;;;;;;;9.57;4.88;;;18.10;99.90;;;;;;5049469;28;20048;-67
2022/10/19 12:09:34;;;;;;;8.13;3.88;;;18.20;99.90;;;;;;5049523;28;20039;-65
2022/10/19 12:12:15;;;;;;;12.25;4.88;;;18.20;99.90;;;;;;4988568;28;20065;-64
2022/10/19 12:14:45;;;;;;;8.80;4.90;;;18.40;99.90;;;;;;4989679;28;20042;-63
2022/10/19 12:17:28;;;;;;;13.30;4.43;;;18.40;99.90;;;;;;4987855;28;20045;-62
2022/10/19 12:19:59;;;;;;;11.38;4.50;;;18.40;99.90;;;;;;4987930;28;20527;-63
2022/10/19 12:22:29;;;;;;;8.77;4.75;;;18.60;99.90;;;;;;4987089;28;20105;-69
2022/10/19 12:24:57;;;;;;;11.25;5.13;;;18.70;99.90;;;;;;4972877;28;20129;-65
2022/10/19 12:27:34;;;;;;;9.40;4.40;;;18.90;99.90;;;;;;4986356;28;20722;-66
2022/10/19 12:30:14;;;;;;;9.05;4.32;;;19.10;99.90;;;;;;4983493;28;20046;-66
2022/10/19 12:33:17;;;;;;;7.40;4.70;;;19.00;99.90;;;;;;4989036;28;20121;-66
2022/10/19 12:36:04;;;;;;;7.90;4.00;;;19.00;99.90;;;;;;4987316;28;20066;-63
2022/10/19 12:38:55;;;;;;;9.85;4.03;;;19.30;99.90;;;;;;4987658;28;20125;-65
2022/10/19 12:41:35;;;;;;;10.68;5.13;;;19.20;99.90;;;;;;4971061;28;20089;-63
2022/10/19 12:44:16;;;;;;;7.93;4.43;;;19.20;99.90;;;;;;5038272;28;20049;-63
2022/10/19 12:46:46;;;;;;;11.48;5.03;;;19.30;99.90;;;;;;5051218;28;20037;-66
2022/10/19 12:49:29;;;;;;;7.65;4.57;;;19.50;99.90;;;;;;5043589;28;20021;-62
2022/10/19 12:52:00;;;;;;;6.60;4.43;;;19.70;99.90;;;;;;5046861;28;20033;-67
2022/10/19 12:54:31;;;;;;;9.95;5.05;;;19.90;99.90;;;;;;5043243;28;20017;-65
2022/10/19 12:57:00;;;;;;;11.98;4.07;;;20.10;99.90;;;;;;5050574;28;20163;-63
2022/10/19 12:59:35;;;;;;;9.18;4.63;;;20.10;99.90;;;;;;5047770;28;20044;-64